createdAt,value
2022-12-31T00:00:08.733Z,11.47
2022-12-31T00:02:36.274Z,11.47
2022-12-31T00:05:03.753Z,11.48
2022-12-31T00:07:30.341Z,11.48
2022-12-31T00:09:56.899Z,11.47
2022-12-31T00:12:23.416Z,11.48
2022-12-31T00:14:49.918Z,11.49
2022-12-31T00:17:16.452Z,11.48
2022-12-31T00:19:43.019Z,11.49
2022-12-31T00:22:10.019Z,11.49
2022-12-31T00:24:36.582Z,11.50
2022-12-31T00:27:03.359Z,11.49
2022-12-31T00:29:29.977Z,11.47
2022-12-31T00:31:56.567Z,11.50
2022-12-31T00:34:23.222Z,11.51
2022-12-31T00:36:49.762Z,11.52
2022-12-31T00:39:16.363Z,11.50
2022-12-31T00:41:44.139Z,11.51
2022-12-31T00:44:13.857Z,11.50
2022-12-31T00:49:06.180Z,11.50
2022-12-31T00:51:38.014Z,11.51
2022-12-31T00:54:04.621Z,11.49
2022-12-31T00:56:31.751Z,11.49
2022-12-31T00:58:59.716Z,11.49
2022-12-31T01:01:28.911Z,11.50
2022-12-31T01:03:59.463Z,11.47
2022-12-31T01:06:26.068Z,11.46
2022-12-31T01:08:53.998Z,11.46
2022-12-31T01:11:24.656Z,11.45
2022-12-31T01:13:57.186Z,11.43
2022-12-31T01:16:27.777Z,11.42
2022-12-31T01:18:54.750Z,11.42
2022-12-31T01:21:21.927Z,11.41
2022-12-31T01:23:49.100Z,11.42
2022-12-31T01:26:17.538Z,11.38
2022-12-31T01:28:44.460Z,11.38
2022-12-31T01:31:14.934Z,11.36
2022-12-31T01:33:42.571Z,11.37
2022-12-31T01:36:13.017Z,11.35
2022-12-31T01:38:40.402Z,11.34
2022-12-31T01:41:07.787Z,11.34
2022-12-31T01:43:43.325Z,11.32
2022-12-31T01:46:12.755Z,11.32
2022-12-31T01:48:39.318Z,11.30
2022-12-31T01:51:09.755Z,11.30
2022-12-31T01:53:40.694Z,11.29
2022-12-31T01:56:07.797Z,11.29
2022-12-31T01:58:43.086Z,11.28
2022-12-31T02:01:11.445Z,11.26
2022-12-31T02:03:39.318Z,11.26
2022-12-31T02:06:18.119Z,11.25
2022-12-31T02:08:45.232Z,11.23
2022-12-31T02:11:24.661Z,11.24
2022-12-31T02:13:58.210Z,11.23
2022-12-31T02:16:34.795Z,11.21
2022-12-31T02:19:32.261Z,11.20
2022-12-31T02:22:17.215Z,11.20
2022-12-31T02:25:10.346Z,11.19
2022-12-31T02:28:19.874Z,11.19
2022-12-31T02:30:52.403Z,11.18
2022-12-31T02:33:21.624Z,11.16
2022-12-31T02:35:55.480Z,11.15
2022-12-31T02:38:26.572Z,11.17
2022-12-31T02:40:56.680Z,11.18
2022-12-31T02:43:23.619Z,11.15
2022-12-31T02:46:11.938Z,11.14
2022-12-31T02:49:03.558Z,11.13
2022-12-31T02:51:32.696Z,11.13
2022-12-31T02:54:18.610Z,11.12
2022-12-31T02:57:15.563Z,11.11
2022-12-31T03:00:15.575Z,11.10
2022-12-31T03:02:45.765Z,11.09
2022-12-31T03:05:16.075Z,11.08
2022-12-31T03:07:44.309Z,11.06
2022-12-31T03:10:11.410Z,11.06
2022-12-31T03:12:48.900Z,11.05
2022-12-31T03:15:27.430Z,11.05
2022-12-31T03:18:05.489Z,11.02
2022-12-31T03:20:56.390Z,11.03
2022-12-31T03:23:30.907Z,11.02
2022-12-31T03:25:58.380Z,11.01
2022-12-31T03:28:30.336Z,11.00
2022-12-31T03:31:00.384Z,10.99
2022-12-31T03:33:31.735Z,10.98
2022-12-31T03:35:58.312Z,10.97
2022-12-31T03:38:25.035Z,10.96
2022-12-31T03:40:53.232Z,10.96
2022-12-31T03:43:20.604Z,10.94
2022-12-31T03:45:51.996Z,10.93
2022-12-31T03:48:19.286Z,10.93
2022-12-31T03:50:45.966Z,10.91
2022-12-31T03:53:12.617Z,10.91
2022-12-31T03:55:39.109Z,10.88
2022-12-31T03:58:06.047Z,10.86
2022-12-31T04:00:32.969Z,10.85
2022-12-31T04:02:59.509Z,10.84
2022-12-31T04:05:26.124Z,10.82
2022-12-31T04:07:52.668Z,10.82
2022-12-31T04:10:20.550Z,10.81
2022-12-31T04:12:47.192Z,10.80
2022-12-31T04:15:20.455Z,10.79
2022-12-31T04:17:47.835Z,10.78
2022-12-31T04:20:15.883Z,10.76
2022-12-31T04:22:44.040Z,10.76
2022-12-31T04:25:13.904Z,10.73
2022-12-31T04:27:43.540Z,10.72
2022-12-31T04:30:12.129Z,10.70
2022-12-31T04:32:38.746Z,10.70
2022-12-31T04:35:06.945Z,10.70
2022-12-31T04:37:33.663Z,10.68
2022-12-31T04:40:05.827Z,10.68
2022-12-31T04:42:33.619Z,10.68
2022-12-31T04:45:00.194Z,10.66
2022-12-31T04:47:26.905Z,10.66
2022-12-31T04:49:53.399Z,10.66
2022-12-31T04:52:19.971Z,10.66
2022-12-31T04:54:46.700Z,10.65
2022-12-31T04:57:13.241Z,10.64
2022-12-31T04:59:39.864Z,10.62
2022-12-31T05:02:06.458Z,10.64
2022-12-31T05:04:33.414Z,10.64
2022-12-31T05:06:59.874Z,10.64
2022-12-31T05:09:28.336Z,10.63
2022-12-31T05:11:55.089Z,10.63
2022-12-31T05:14:21.835Z,10.63
2022-12-31T05:16:48.473Z,10.62
2022-12-31T05:19:15.193Z,10.65
2022-12-31T05:21:41.732Z,10.62
2022-12-31T05:24:09.560Z,10.64
2022-12-31T05:26:36.087Z,10.63
2022-12-31T05:29:02.697Z,10.62
2022-12-31T05:31:29.148Z,10.65
2022-12-31T05:33:55.785Z,10.67
2022-12-31T05:36:22.213Z,10.67
2022-12-31T05:38:48.889Z,10.68
2022-12-31T05:41:15.541Z,10.71
2022-12-31T05:43:42.009Z,10.72
2022-12-31T05:46:09.095Z,10.72
2022-12-31T05:48:35.710Z,10.77
2022-12-31T05:51:02.477Z,10.79
2022-12-31T05:53:29.026Z,10.80
2022-12-31T05:55:55.693Z,10.81
2022-12-31T05:58:22.227Z,10.84
2022-12-31T06:00:48.792Z,10.86
2022-12-31T06:03:15.551Z,10.90
2022-12-31T06:05:43.641Z,10.92
2022-12-31T06:08:12.167Z,10.93
2022-12-31T06:10:39.669Z,10.94
2022-12-31T06:13:06.592Z,10.98
2022-12-31T06:15:33.411Z,11.00
2022-12-31T06:18:00.082Z,10.99
2022-12-31T06:20:26.658Z,11.02
2022-12-31T06:22:53.541Z,11.03
2022-12-31T06:25:20.015Z,11.07
2022-12-31T06:27:46.574Z,11.06
2022-12-31T06:30:13.780Z,11.07
2022-12-31T06:32:40.913Z,11.07
2022-12-31T06:35:07.899Z,11.08
2022-12-31T06:37:34.860Z,11.11
2022-12-31T06:40:01.599Z,11.12
2022-12-31T06:42:30.912Z,11.13
2022-12-31T06:44:58.484Z,11.15
2022-12-31T06:47:25.927Z,11.14
2022-12-31T06:49:53.192Z,11.17
2022-12-31T06:52:20.764Z,11.20
2022-12-31T06:54:48.052Z,11.25
2022-12-31T06:57:15.562Z,11.26
2022-12-31T06:59:42.478Z,11.32
2022-12-31T07:02:44.423Z,11.34
2022-12-31T07:05:28.877Z,11.40
2022-12-31T07:08:08.532Z,11.43
2022-12-31T07:10:38.140Z,11.48
2022-12-31T07:13:23.999Z,11.55
2022-12-31T07:15:54.567Z,11.62
2022-12-31T07:18:43.766Z,11.61
2022-12-31T07:21:16.746Z,11.67
2022-12-31T07:23:43.878Z,11.71
2022-12-31T07:26:35.762Z,11.74
2022-12-31T07:29:20.361Z,11.78
2022-12-31T07:32:02.578Z,11.83
2022-12-31T07:34:34.479Z,11.90
2022-12-31T07:37:14.171Z,11.99
2022-12-31T07:39:54.354Z,12.10
2022-12-31T07:42:37.707Z,12.22
2022-12-31T07:45:18.434Z,12.33
2022-12-31T07:47:45.332Z,12.41
2022-12-31T07:50:15.950Z,12.51
2022-12-31T07:52:43.031Z,12.57
2022-12-31T07:55:10.926Z,12.65
2022-12-31T07:57:47.363Z,12.74
2022-12-31T08:00:15.680Z,12.85
2022-12-31T08:02:54.106Z,12.91
2022-12-31T08:05:31.922Z,12.99
2022-12-31T08:08:17.820Z,13.07
2022-12-31T08:11:11.037Z,13.13
2022-12-31T08:13:39.051Z,13.18
2022-12-31T08:16:11.414Z,13.22
2022-12-31T08:18:38.250Z,13.25
2022-12-31T08:21:42.289Z,13.27
2022-12-31T08:24:30.659Z,13.34
2022-12-31T08:27:04.032Z,13.37
2022-12-31T08:29:42.440Z,13.39
2022-12-31T08:32:26.450Z,13.39
2022-12-31T08:35:03.353Z,13.40
2022-12-31T08:37:40.411Z,13.41
2022-12-31T08:40:19.152Z,13.42
2022-12-31T08:42:53.674Z,13.44
2022-12-31T08:45:29.079Z,13.44
2022-12-31T08:48:08.466Z,13.47
2022-12-31T08:50:35.198Z,13.45
2022-12-31T08:53:01.976Z,13.46
2022-12-31T08:55:30.120Z,13.48
2022-12-31T08:58:19.437Z,13.46
2022-12-31T09:00:48.205Z,13.46
2022-12-31T09:03:25.648Z,13.45
2022-12-31T09:06:00.541Z,13.46
2022-12-31T09:08:39.484Z,13.47
2022-12-31T09:11:43.466Z,13.49
2022-12-31T09:14:18.378Z,13.48
2022-12-31T09:17:15.401Z,13.46
2022-12-31T09:19:42.092Z,13.48
2022-12-31T09:22:10.626Z,13.53
2022-12-31T09:24:38.621Z,13.53
2022-12-31T09:27:16.107Z,13.59
2022-12-31T09:30:00.698Z,13.62
2022-12-31T09:32:40.065Z,13.62
2022-12-31T09:35:30.626Z,13.68
2022-12-31T09:38:12.913Z,13.69
2022-12-31T09:40:57.579Z,13.76
2022-12-31T09:44:01.837Z,13.77
2022-12-31T09:47:05.324Z,13.82
2022-12-31T09:49:44.016Z,13.87
2022-12-31T09:52:44.618Z,13.89
2022-12-31T09:55:30.305Z,13.92
2022-12-31T09:57:56.820Z,13.96
2022-12-31T10:01:01.513Z,14.03
2022-12-31T10:03:50.903Z,14.05
2022-12-31T10:06:46.606Z,14.08
2022-12-31T10:09:30.580Z,14.12
2022-12-31T10:12:20.706Z,14.15
2022-12-31T10:15:17.270Z,14.22
2022-12-31T10:18:16.714Z,14.28
2022-12-31T10:20:53.026Z,14.33
2022-12-31T10:23:19.650Z,14.37
2022-12-31T10:26:11.114Z,14.45
2022-12-31T10:28:37.505Z,14.48
2022-12-31T10:31:15.170Z,14.53
2022-12-31T10:33:43.386Z,14.53
2022-12-31T10:36:20.977Z,14.59
2022-12-31T10:39:14.389Z,14.60
2022-12-31T10:42:05.148Z,14.68
2022-12-31T10:44:43.977Z,14.71
2022-12-31T10:47:44.831Z,14.75
2022-12-31T10:50:49.059Z,14.76
2022-12-31T10:53:41.961Z,14.78
2022-12-31T10:56:31.089Z,14.86
2022-12-31T10:59:13.559Z,14.83
2022-12-31T11:01:49.035Z,14.85
2022-12-31T11:04:28.191Z,14.84
2022-12-31T11:07:07.366Z,14.78
2022-12-31T11:10:18.556Z,14.82
2022-12-31T11:13:04.007Z,14.78
2022-12-31T11:15:33.540Z,14.78
2022-12-31T11:18:30.590Z,14.77
2022-12-31T11:21:18.382Z,14.77
2022-12-31T11:24:17.648Z,14.77
2022-12-31T11:26:56.255Z,14.73
2022-12-31T11:29:29.014Z,14.73
2022-12-31T11:31:58.724Z,14.72
2022-12-31T11:35:02.757Z,14.75
2022-12-31T11:37:40.315Z,14.71
2022-12-31T11:40:15.627Z,14.71
2022-12-31T11:42:54.466Z,14.77
2022-12-31T11:45:39.430Z,14.76
2022-12-31T11:48:30.556Z,14.77
2022-12-31T11:51:19.458Z,14.77
2022-12-31T11:54:07.784Z,14.77
2022-12-31T11:56:38.956Z,14.79
2022-12-31T11:59:18.846Z,14.84
2022-12-31T12:01:56.254Z,14.87
2022-12-31T12:04:23.070Z,14.89
2022-12-31T12:06:50.324Z,14.94
2022-12-31T12:09:27.743Z,15.01
2022-12-31T12:12:00.358Z,15.01
2022-12-31T12:14:41.960Z,15.06
2022-12-31T12:17:32.110Z,15.06
2022-12-31T12:20:18.570Z,15.08
2022-12-31T12:22:51.330Z,15.08
2022-12-31T12:25:23.876Z,15.10
2022-12-31T12:27:50.534Z,15.11
2022-12-31T12:30:24.834Z,15.07
2022-12-31T12:33:01.913Z,15.16
2022-12-31T12:35:35.282Z,15.14
2022-12-31T12:38:06.026Z,15.16
2022-12-31T12:40:34.734Z,15.18
2022-12-31T12:43:03.335Z,15.20
2022-12-31T12:45:42.112Z,15.18
2022-12-31T12:48:18.211Z,15.17
2022-12-31T12:50:47.974Z,15.21
2022-12-31T12:53:26.962Z,15.23
2022-12-31T12:56:12.747Z,15.23
2022-12-31T12:58:55.083Z,15.28
2022-12-31T13:01:34.904Z,15.26
2022-12-31T13:04:34.720Z,15.27
2022-12-31T13:07:30.216Z,15.29
2022-12-31T13:10:15.968Z,15.25
2022-12-31T13:15:52.352Z,15.29
2022-12-31T13:18:46.192Z,15.30
2022-12-31T13:21:28.238Z,15.30
2022-12-31T13:24:01.075Z,15.32
2022-12-31T13:26:30.320Z,15.32
2022-12-31T13:29:00.484Z,15.31
2022-12-31T13:31:34.171Z,15.27
2022-12-31T13:34:10.844Z,15.27
2022-12-31T13:36:41.899Z,15.26
2022-12-31T13:39:24.347Z,15.26
2022-12-31T13:41:58.120Z,15.24
2022-12-31T13:44:35.272Z,15.24
2022-12-31T13:47:10.929Z,15.22
2022-12-31T13:49:49.145Z,15.20
2022-12-31T13:52:34.651Z,15.21
2022-12-31T13:55:31.938Z,15.18
2022-12-31T13:58:09.565Z,15.17
2022-12-31T14:00:58.792Z,15.19
2022-12-31T14:03:40.449Z,15.16
2022-12-31T14:06:10.013Z,15.16
2022-12-31T14:08:36.745Z,15.20
2022-12-31T14:11:03.804Z,15.22
2022-12-31T14:13:43.307Z,15.21
2022-12-31T14:16:40.444Z,15.22
2022-12-31T14:19:13.085Z,15.20
2022-12-31T14:21:47.580Z,15.24
2022-12-31T14:24:30.027Z,15.25
2022-12-31T14:27:01.151Z,15.27
2022-12-31T14:29:39.736Z,15.26
2022-12-31T14:32:27.502Z,15.29
2022-12-31T14:35:23.168Z,15.28
2022-12-31T14:37:55.757Z,15.19
2022-12-31T14:40:32.091Z,15.13
2022-12-31T14:43:22.579Z,15.07
2022-12-31T14:46:10.586Z,15.01
2022-12-31T14:48:56.299Z,14.99
2022-12-31T14:51:28.595Z,15.03
2022-12-31T14:53:57.818Z,14.97
2022-12-31T14:56:45.503Z,15.00
2022-12-31T14:59:34.437Z,15.06
2022-12-31T15:02:27.191Z,15.06
2022-12-31T15:05:10.549Z,15.01
2022-12-31T15:07:43.702Z,15.02
2022-12-31T15:10:38.355Z,15.06
2022-12-31T15:13:32.691Z,15.08
2022-12-31T15:16:30.335Z,15.08
2022-12-31T15:19:41.642Z,15.10
2022-12-31T15:22:32.731Z,15.09
2022-12-31T15:25:01.158Z,15.07
2022-12-31T15:27:35.975Z,15.10
2022-12-31T15:30:04.092Z,15.13
2022-12-31T15:32:40.783Z,15.16
2022-12-31T15:35:30.928Z,15.20
2022-12-31T15:38:00.612Z,15.24
2022-12-31T15:40:29.561Z,15.24
2022-12-31T15:43:07.921Z,15.25
2022-12-31T15:45:38.525Z,15.31
2022-12-31T15:48:26.880Z,15.30
2022-12-31T15:50:57.922Z,15.36
2022-12-31T15:53:38.957Z,15.37
2022-12-31T15:56:07.704Z,15.41
2022-12-31T15:58:36.607Z,15.41
2022-12-31T16:01:20.224Z,15.44
2022-12-31T16:03:51.623Z,15.44
2022-12-31T16:06:18.592Z,15.47
2022-12-31T16:08:48.192Z,15.50
2022-12-31T16:11:16.209Z,15.53
2022-12-31T16:13:47.040Z,15.47
2022-12-31T16:16:23.294Z,15.50
2022-12-31T16:18:50.528Z,15.57
2022-12-31T16:21:28.149Z,15.56
2022-12-31T16:23:58.180Z,15.54
2022-12-31T16:26:31.413Z,15.55
2022-12-31T16:29:00.839Z,15.58
2022-12-31T16:31:29.032Z,15.64
2022-12-31T16:34:11.006Z,15.61
2022-12-31T16:36:37.627Z,15.61
2022-12-31T16:39:21.316Z,15.61
2022-12-31T16:41:47.982Z,15.62
2022-12-31T16:44:25.825Z,15.61
2022-12-31T16:46:56.475Z,15.64
2022-12-31T16:49:23.713Z,15.61
2022-12-31T16:51:50.468Z,15.59
2022-12-31T16:54:23.567Z,15.60
2022-12-31T16:56:51.557Z,15.62
2022-12-31T16:59:34.945Z,15.62
2022-12-31T17:02:04.541Z,15.64
2022-12-31T17:04:31.358Z,15.65
2022-12-31T17:07:26.703Z,15.63
2022-12-31T17:10:08.417Z,15.67
2022-12-31T17:13:01.041Z,15.59
2022-12-31T17:15:38.331Z,15.63
2022-12-31T17:18:06.179Z,15.59
2022-12-31T17:20:34.239Z,15.56
2022-12-31T17:23:05.754Z,15.62
2022-12-31T17:25:36.008Z,15.61
2022-12-31T17:28:19.445Z,15.60
2022-12-31T17:30:46.088Z,15.63
2022-12-31T17:33:12.599Z,15.61
2022-12-31T17:35:42.341Z,15.61
2022-12-31T17:38:18.085Z,15.62
2022-12-31T17:40:51.593Z,15.61
2022-12-31T17:43:23.666Z,15.61
2022-12-31T17:45:54.745Z,15.59
2022-12-31T17:48:27.226Z,15.58
2022-12-31T17:50:59.867Z,15.54
2022-12-31T17:53:26.943Z,15.55
2022-12-31T17:55:56.033Z,15.55
2022-12-31T17:58:29.392Z,15.60
2022-12-31T18:00:58.269Z,15.62
2022-12-31T18:03:25.265Z,15.61
2022-12-31T18:05:52.029Z,15.61
2022-12-31T18:08:18.567Z,15.62
2022-12-31T18:10:45.419Z,15.64
2022-12-31T18:13:23.925Z,15.63
2022-12-31T18:15:51.453Z,15.65
2022-12-31T18:18:25.472Z,15.65
2022-12-31T18:20:57.754Z,15.66
2022-12-31T18:23:27.506Z,15.65
2022-12-31T18:25:54.794Z,15.68
2022-12-31T18:28:21.370Z,15.64
2022-12-31T18:30:48.298Z,15.66
2022-12-31T18:33:20.061Z,15.68
2022-12-31T18:38:34.067Z,15.70
2022-12-31T18:41:00.675Z,15.67
2022-12-31T18:43:27.728Z,15.72
2022-12-31T18:45:54.268Z,15.71
2022-12-31T18:48:20.931Z,15.72
2022-12-31T18:50:48.494Z,15.72
2022-12-31T18:53:20.462Z,15.76
2022-12-31T18:55:53.823Z,15.76
2022-12-31T18:58:25.247Z,15.77
2022-12-31T19:00:52.822Z,15.77
2022-12-31T19:03:23.076Z,15.76
2022-12-31T19:05:51.348Z,15.81
2022-12-31T19:08:19.602Z,15.81
2022-12-31T19:10:52.014Z,15.82
2022-12-31T19:13:20.114Z,15.83
2022-12-31T19:15:54.288Z,15.82
2022-12-31T19:18:20.881Z,15.83
2022-12-31T19:20:47.890Z,15.84
2022-12-31T19:23:20.529Z,15.86
2022-12-31T19:25:50.318Z,15.81
2022-12-31T19:28:20.949Z,15.82
2022-12-31T19:30:48.197Z,15.83
2022-12-31T19:33:15.238Z,15.83
2022-12-31T19:35:42.313Z,15.85
2022-12-31T19:38:20.572Z,15.80
2022-12-31T19:40:48.334Z,15.79
2022-12-31T19:43:17.559Z,15.75
2022-12-31T19:45:45.345Z,15.77
2022-12-31T19:48:14.302Z,15.72
2022-12-31T19:50:44.152Z,15.76
2022-12-31T19:53:13.750Z,15.73
2022-12-31T19:55:40.403Z,15.72
2022-12-31T19:58:07.476Z,15.72
2022-12-31T20:00:34.819Z,15.67
2022-12-31T20:03:01.549Z,15.71
2022-12-31T20:05:28.165Z,15.72
2022-12-31T20:07:55.101Z,15.75
2022-12-31T20:10:21.639Z,15.72
2022-12-31T20:12:48.189Z,15.76
2022-12-31T20:15:14.663Z,15.73
2022-12-31T20:17:41.203Z,15.72
2022-12-31T20:20:08.373Z,15.74
2022-12-31T20:22:35.131Z,15.75
2022-12-31T20:25:01.705Z,15.78
2022-12-31T20:27:28.331Z,15.80
2022-12-31T20:29:54.845Z,15.79
2022-12-31T20:32:21.405Z,15.77
2022-12-31T20:34:48.290Z,15.81
2022-12-31T20:37:14.772Z,15.82
2022-12-31T20:39:42.725Z,15.83
2022-12-31T20:42:09.295Z,15.82
2022-12-31T20:44:36.067Z,15.83
2022-12-31T20:47:02.909Z,15.85
2022-12-31T20:50:00.968Z,15.83
2022-12-31T20:52:16.021Z,15.80
2022-12-31T20:54:42.585Z,15.84
2022-12-31T20:57:09.182Z,15.87
2022-12-31T20:59:36.904Z,15.88
2022-12-31T21:04:50.570Z,15.87
2022-12-31T21:07:17.250Z,15.83
2022-12-31T21:09:43.705Z,15.78
2022-12-31T21:12:30.116Z,15.74
2022-12-31T21:14:56.800Z,15.67
2022-12-31T21:17:23.593Z,15.62
2022-12-31T21:19:50.119Z,15.55
2022-12-31T21:22:16.684Z,15.51
2022-12-31T21:24:43.190Z,15.45
2022-12-31T21:27:09.804Z,15.42
2022-12-31T21:29:50.390Z,15.37
2022-12-31T21:32:23.538Z,15.33
2022-12-31T21:35:14.736Z,15.29
2022-12-31T21:37:58.644Z,15.23
2022-12-31T21:40:23.218Z,15.21
2022-12-31T21:42:49.859Z,15.17
2022-12-31T21:45:16.465Z,15.14
2022-12-31T21:48:01.659Z,15.13
2022-12-31T21:50:28.456Z,15.08
2022-12-31T21:52:54.972Z,15.04
2022-12-31T21:55:39.756Z,14.99
2022-12-31T22:01:11.678Z,14.95
2022-12-31T22:03:38.459Z,14.92
2022-12-31T22:06:12.279Z,14.91
2022-12-31T22:08:40.691Z,14.90
2022-12-31T22:11:08.345Z,14.89
2022-12-31T22:13:35.460Z,14.86
2022-12-31T22:16:05.572Z,14.86
2022-12-31T22:18:35.156Z,14.87
2022-12-31T22:21:20.716Z,14.86
2022-12-31T22:23:51.865Z,14.85
2022-12-31T22:26:21.373Z,14.84
2022-12-31T22:28:48.058Z,14.83
2022-12-31T22:31:24.676Z,14.83
2022-12-31T22:33:51.572Z,14.81
2022-12-31T22:36:20.458Z,14.81
2022-12-31T22:38:48.391Z,14.82
2022-12-31T22:41:20.032Z,14.80
2022-12-31T22:43:49.691Z,14.78
2022-12-31T22:46:18.078Z,14.81
2022-12-31T22:48:44.919Z,14.81
2022-12-31T22:51:12.461Z,14.81
2022-12-31T22:53:41.210Z,14.81
2022-12-31T22:56:09.223Z,14.81
2022-12-31T22:58:39.543Z,14.80
2022-12-31T23:01:14.901Z,14.79
2022-12-31T23:03:42.527Z,14.80
2022-12-31T23:06:10.734Z,14.82
2022-12-31T23:08:37.429Z,14.81
2022-12-31T23:11:06.005Z,14.80
2022-12-31T23:13:59.577Z,14.78
2022-12-31T23:16:47.638Z,14.77
2022-12-31T23:19:34.344Z,14.75
2022-12-31T23:22:19.482Z,14.74
2022-12-31T23:24:46.045Z,14.74
2022-12-31T23:27:12.940Z,14.75
2022-12-31T23:29:46.528Z,14.74
2022-12-31T23:32:15.534Z,14.75
2022-12-31T23:34:43.352Z,14.72
2022-12-31T23:37:10.327Z,14.73
2022-12-31T23:39:36.910Z,14.75
2022-12-31T23:42:03.673Z,14.76
2022-12-31T23:44:30.655Z,14.75
2022-12-31T23:46:57.326Z,14.77
2022-12-31T23:49:24.007Z,14.77
2022-12-31T23:51:50.513Z,14.77
2022-12-31T23:54:17.903Z,14.76
2022-12-31T23:56:44.520Z,14.76
2022-12-31T23:59:12.297Z,14.75
